RKTN/TAE METAR and TAF weather

Enter ICAO airport designator
Station Type Date Time Source
RKTN METAR 2021/04/13 22:00 UTC NOAA

RKTN 132200Z 30008KT 9999 FEW040 BKN200 06/M01 Q1018


Station Type Date Time Source
RKTN Decoded METAR 2021/04/13 22:00 UTC NOAA

Taegu Ab, Korea, South (RKTN) 35-54N 128-39E 37M
Apr 13, 2021 - 06:00 PM EDT / 2021.04.13 2200 UTC
Wind: from the WNW (300 degrees) at 9 MPH (8 KT):0
Visibility: greater than 7 mile(s):0
Sky conditions: mostly cloudy
Temperature: 42 F (6 C)
Dew Point: 30 F (-1 C)
Relative Humidity: 60%
Pressure (altimeter): 30.06 in. Hg (1018 hPa)
ob: RKTN 132200Z 30008KT 9999 FEW040 BKN200 06/M01 Q1018
cycle: 22

Station Type Date Time Source
RKTN TAF 2021/04/13 18:07 UTC NOAA

TAF RKTN 131700Z 1318/1424 31008KT 9999 FEW040 SCT200 TN04/1321Z TX17/1406Z

Example: see airport list